Weather reports worldwide

Advertisment
Lampedusa, Italy (16490): temperature & dewpoint: 13.07.2018 13:00:00 - 19.07.2018 13:00:00 (CEST)Lampedusa, Italy (16490): wind speed: 13.07.2018 13:00:00 - 19.07.2018 13:00:00 (CEST)Lampedusa, Italy (16490): wind direction: 13.07.2018 13:00:00 - 19.07.2018 13:00:00 (CEST)Lampedusa, Italy (16490): visibility: 13.07.2018 13:00:00 - 19.07.2018 13:00:00 (CEST)
Date & Time tt [°C] td [°C] ff [km/h] ff [kn] dd vv [km]
19.07.2018 13:00:00 29,0 23,0 13 7 SSW 10
19.07.2018 12:00:00 28,0 23,0 15 8 SSW 10
19.07.2018 11:00:00 28,0 23,0 16 9 S 10
19.07.2018 10:00:00 27,0 24,0 11 6 SSW 10
19.07.2018 09:00:00 27,0 23,0 9 5 S 10
19.07.2018 08:00:00 26,0 22,0 11 6 SE 10
19.07.2018 07:00:00 24,0 23,0 4 2 S 10
19.07.2018 06:00:00 23,0 22,0 5 3 W 10
19.07.2018 05:00:00 - - - - - -
19.07.2018 04:00:00 - - - - - -
19.07.2018 03:00:00 - - - - - -
19.07.2018 02:00:00 - - - - - -
19.07.2018 01:00:00 - - - - - -
19.07.2018 00:00:00 - - - - - -
18.07.2018 23:00:00 - - - - - -
18.07.2018 22:00:00 25,0 21,0 2 1 NNE 10
18.07.2018 21:00:00 26,0 21,0 5 3 N 10
18.07.2018 20:00:00 27,0 21,0 8 4 NNW 10
18.07.2018 19:00:00 27,0 21,0 11 6 NNW 10
18.07.2018 18:00:00 28,0 22,0 15 8 N 10
18.07.2018 17:00:00 28,0 22,0 15 8 NNW 10
18.07.2018 16:00:00 28,0 21,0 15 8 NNW 10
18.07.2018 15:00:00 28,0 21,0 15 8 WNW 10
18.07.2018 14:00:00 28,0 21,0 16 9 NW 10
18.07.2018 13:00:00 28,0 22,0 16 9 NNW 10
18.07.2018 12:00:00 27,0 22,0 16 9 NW 10
18.07.2018 11:00:00 27,0 22,0 16 9 NNW 10
18.07.2018 10:00:00 27,0 22,0 16 9 NW 10
18.07.2018 09:00:00 26,0 22,0 15 8 NW 10
18.07.2018 08:00:00 25,0 23,0 9 5 NNW 10
18.07.2018 07:00:00 24,0 22,0 8 4 NW 10
18.07.2018 06:00:00 24,0 23,0 9 5 NW 10
18.07.2018 05:00:00 - - - - - -
18.07.2018 04:00:00 - - - - - -
18.07.2018 03:00:00 - - - - - -
18.07.2018 02:00:00 - - - - - -
18.07.2018 01:00:00 - - - - - -
18.07.2018 00:00:00 - - - - - -
17.07.2018 23:00:00 - - - - - -
17.07.2018 22:00:00 25,0 22,0 22 12 N 10
17.07.2018 21:00:00 26,0 22,0 22 12 N 10
17.07.2018 20:00:00 26,0 22,0 24 13 N 10
17.07.2018 19:00:00 27,0 22,0 26 14 N 10
17.07.2018 18:00:00 28,0 21,0 24 13 NNW 10
17.07.2018 17:00:00 28,0 21,0 21 11 N 10
17.07.2018 16:00:00 28,0 21,0 26 14 NNW 10
17.07.2018 15:00:00 28,0 22,0 24 13 NNW 10
17.07.2018 14:00:00 28,0 22,0 26 14 NNW 10
17.07.2018 13:00:00 28,0 22,0 26 14 NNW 10
17.07.2018 12:00:00 28,0 22,0 28 15 NNW 10
17.07.2018 11:00:00 27,0 22,0 29 16 N 10
17.07.2018 10:00:00 27,0 22,0 26 14 N 10
17.07.2018 09:00:00 26,0 22,0 31 17 N 10
17.07.2018 08:00:00 26,0 23,0 29 16 N 10
17.07.2018 07:00:00 26,0 22,0 29 16 N 10
17.07.2018 06:00:00 26,0 21,0 31 17 N 10
17.07.2018 05:00:00 - - - - - -
17.07.2018 04:00:00 - - - - - -
17.07.2018 03:00:00 - - - - - -
17.07.2018 02:00:00 - - - - - -
17.07.2018 01:00:00 - - - - - -
17.07.2018 00:00:00 - - - - - -
16.07.2018 23:00:00 - - - - - -
16.07.2018 22:00:00 26,0 25,0 13 7 NW 10
16.07.2018 21:00:00 27,0 25,0 5 3 SSE 10
16.07.2018 20:00:00 27,0 25,0 9 5 SSE 10
16.07.2018 19:00:00 28,0 25,0 8 4 S 10
16.07.2018 18:00:00 - - - - - -
16.07.2018 17:00:00 - - - - - -
16.07.2018 16:00:00 29,0 24,0 15 8 SSW 10
16.07.2018 15:00:00 29,0 24,0 18 10 SE 10
16.07.2018 14:00:00 28,0 24,0 9 5 ESE 10
16.07.2018 13:00:00 28,0 24,0 9 5 NE 10
16.07.2018 12:00:00 28,0 24,0 11 6 NE 10
16.07.2018 11:00:00 28,0 24,0 5 3 N 10
16.07.2018 10:00:00 27,0 24,0 9 5 NNE 10
16.07.2018 09:00:00 26,0 24,0 11 6 ENE 10
16.07.2018 08:00:00 26,0 24,0 11 6 NE 10
16.07.2018 07:00:00 25,0 24,0 18 10 NNE 10
16.07.2018 06:00:00 25,0 24,0 18 10 N 10
16.07.2018 05:00:00 - - - - - -
16.07.2018 04:00:00 - - - - - -
16.07.2018 03:00:00 - - - - - -
16.07.2018 02:00:00 - - - - - -
16.07.2018 01:00:00 - - - - - -
16.07.2018 00:00:00 - - - - - -
15.07.2018 23:00:00 - - - - - -
15.07.2018 22:00:00 26,0 23,0 22 12 NNW 10
15.07.2018 21:00:00 26,0 24,0 28 15 N 10
15.07.2018 20:00:00 26,0 23,0 24 13 NNW 10
15.07.2018 19:00:00 27,0 22,0 28 15 NNW 10
15.07.2018 18:00:00 28,0 23,0 24 13 NNW 10
15.07.2018 17:00:00 28,0 23,0 24 13 NNW 10
15.07.2018 16:00:00 28,0 23,0 28 15 NNW 10
15.07.2018 15:00:00 28,0 23,0 22 12 NW 10
15.07.2018 14:00:00 28,0 23,0 22 12 NW 10
15.07.2018 13:00:00 28,0 23,0 22 12 N 10
15.07.2018 12:00:00 28,0 23,0 26 14 N 10
15.07.2018 11:00:00 27,0 23,0 24 13 NNW 10
15.07.2018 10:00:00 27,0 23,0 18 10 N 10
15.07.2018 09:00:00 26,0 23,0 16 9 N 10
15.07.2018 08:00:00 26,0 23,0 13 7 N 10
15.07.2018 07:00:00 25,0 24,0 13 7 N 9
15.07.2018 06:00:00 25,0 24,0 18 10 N 7
15.07.2018 05:00:00 - - - - - -
15.07.2018 04:00:00 - - - - - -
15.07.2018 03:00:00 - - - - - -
15.07.2018 02:00:00 - - - - - -
15.07.2018 01:00:00 - - - - - -
15.07.2018 00:00:00 26,0 25,0 13 7 NNE 10
14.07.2018 23:00:00 26,0 24,0 11 6 N 10
14.07.2018 22:00:00 27,0 24,0 13 7 NNW 10
14.07.2018 21:00:00 28,0 22,0 11 6 NNW 10
14.07.2018 20:00:00 28,0 24,0 5 3 S 10
14.07.2018 19:00:00 28,0 23,0 11 6 SSE 10
14.07.2018 18:00:00 29,0 23,0 16 9 SSE 10
14.07.2018 17:00:00 30,0 23,0 18 10 SSE 10
14.07.2018 16:00:00 30,0 24,0 18 10 SE 10
14.07.2018 15:00:00 30,0 21,0 22 12 SE 10
14.07.2018 14:00:00 30,0 24,0 16 9 SSE 10
14.07.2018 13:00:00 29,0 25,0 21 11 SSE 10
14.07.2018 12:00:00 28,0 25,0 16 9 SE 10
14.07.2018 11:00:00 28,0 25,0 11 6 SE 10
14.07.2018 10:00:00 28,0 25,0 11 6 SE 10
14.07.2018 09:00:00 27,0 25,0 9 5 SE 10
14.07.2018 08:00:00 26,0 25,0 11 6 ESE 10
14.07.2018 07:00:00 26,0 24,0 5 3 SE 10
14.07.2018 06:00:00 25,0 24,0 8 4 SE 10
14.07.2018 05:00:00 - - - - - -
14.07.2018 04:00:00 - - - - - -
14.07.2018 03:00:00 - - - - - -
14.07.2018 02:00:00 - - - - - -
14.07.2018 01:00:00 - - - - - -
14.07.2018 00:00:00 - - - - - -
13.07.2018 23:00:00 - - - - - -
13.07.2018 22:00:00 27,0 23,0 15 8 SSE 10
13.07.2018 21:00:00 27,0 24,0 15 8 SSE 10
13.07.2018 20:00:00 28,0 24,0 18 10 SSE 10
13.07.2018 19:00:00 28,0 24,0 15 8 SSE 10
13.07.2018 18:00:00 29,0 24,0 18 10 SSE 10
13.07.2018 17:00:00 29,0 24,0 18 10 SSE 10
13.07.2018 16:00:00 29,0 24,0 16 9 SSE 10
13.07.2018 15:00:00 29,0 23,0 15 8 SSE 10
13.07.2018 14:00:00 29,0 24,0 15 8 SSE 10
13.07.2018 13:00:00 29,0 24,0 13 7 SSE 10

tt = temperature
td = dewpoint
ff = wind speed
dd = wind direction
vv = visibility

Next stations